Time;durP1;ratioP1;P1;durP2;ratioP2;P2;SDS_P1;SDS_P2;PMS_P1;PMS_P2;Temp;Humidity;BMP_temperature;BMP_pressure;BME280_temperature;BME280_humidity;BME280_pressure;Samples;Min_cycle;Max_cycle;Signal;HPM_P1;HPM_P2
2022/03/30 00:01:20;;;;;;;4.93;4.63;;;18.50;41.50;;;;;;5010735;28;20223;-56
2022/03/30 00:03:46;;;;;;;5.00;4.60;;;18.50;41.50;;;;;;5008107;28;20604;-57
2022/03/30 00:06:11;;;;;;;5.13;4.83;;;18.50;41.50;;;;;;5009615;28;20648;-57
2022/03/30 00:08:37;;;;;;;4.50;4.20;;;18.50;41.50;;;;;;5009558;28;20462;-57
2022/03/30 00:11:02;;;;;;;5.20;4.90;;;18.50;41.60;;;;;;5010179;28;20243;-57
2022/03/30 00:13:28;;;;;;;4.83;4.53;;;18.50;41.60;;;;;;5008711;28;20339;-57
2022/03/30 00:15:54;;;;;;;4.93;4.43;;;18.50;41.50;;;;;;5010264;28;20240;-56
2022/03/30 00:18:20;;;;;;;4.83;4.53;;;18.50;41.50;;;;;;5009789;28;20586;-56
2022/03/30 00:20:46;;;;;;;4.60;4.30;;;18.50;41.50;;;;;;5007083;28;20424;-56
2022/03/30 00:23:12;;;;;;;5.50;5.20;;;18.50;41.50;;;;;;5009926;28;20235;-59
2022/03/30 00:25:37;;;;;;;4.77;4.47;;;18.50;41.40;;;;;;5009678;28;20361;-56
2022/03/30 00:28:04;;;;;;;4.90;4.60;;;18.50;41.80;;;;;;5009022;28;20549;-58
2022/03/30 00:30:31;;;;;;;5.00;4.70;;;18.50;41.40;;;;;;5008452;28;20723;-56
2022/03/30 00:32:56;;;;;;;5.60;5.20;;;18.50;41.40;;;;;;5010458;28;20428;-56
2022/03/30 00:35:22;;;;;;;5.10;4.70;;;18.50;41.40;;;;;;5005731;28;20833;-58
2022/03/30 00:37:48;;;;;;;5.10;4.70;;;18.50;41.40;;;;;;5005789;28;20220;-57
2022/03/30 00:40:16;;;;;;;4.40;4.10;;;18.50;41.40;;;;;;5010482;28;20416;-58
2022/03/30 00:42:42;;;;;;;4.43;4.13;;;18.50;41.40;;;;;;5009647;28;20243;-56
2022/03/30 00:45:08;;;;;;;4.27;3.97;;;18.50;41.40;;;;;;5009117;28;20448;-57
2022/03/30 00:47:34;;;;;;;4.53;4.23;;;18.50;41.40;;;;;;5009392;28;20469;-57
2022/03/30 00:50:00;;;;;;;4.50;4.20;;;18.50;41.40;;;;;;5006686;28;20446;-56
2022/03/30 00:52:26;;;;;;;4.87;4.57;;;18.50;41.40;;;;;;5009490;28;20306;-56
2022/03/30 00:54:52;;;;;;;4.30;4.00;;;18.50;41.40;;;;;;5005454;28;20239;-57
2022/03/30 00:57:23;;;;;;;4.10;3.87;;;18.50;41.50;;;;;;5007499;28;20306;-57
2022/03/30 00:59:50;;;;;;;4.17;3.93;;;18.50;41.40;;;;;;5008024;28;20474;-56
2022/03/30 01:02:16;;;;;;;4.90;4.60;;;18.50;41.40;;;;;;5008711;28;20491;-57
2022/03/30 01:04:41;;;;;;;5.33;5.03;;;18.50;41.40;;;;;;5007202;28;20768;-57
2022/03/30 01:07:07;;;;;;;5.17;4.67;;;18.50;41.40;;;;;;5009356;28;20428;-56
2022/03/30 01:09:32;;;;;;;4.87;4.50;;;18.50;41.50;;;;;;5008512;28;20246;-56
2022/03/30 01:11:58;;;;;;;4.40;4.10;;;18.50;41.50;;;;;;5007153;28;20255;-57
2022/03/30 01:14:25;;;;;;;6.27;5.10;;;18.50;41.50;;;;;;5008524;28;20240;-57
2022/03/30 01:16:51;;;;;;;5.20;4.80;;;18.50;41.40;;;;;;5007248;28;20691;-58
2022/03/30 01:19:16;;;;;;;4.30;4.00;;;18.50;41.50;;;;;;5009563;28;20449;-57
2022/03/30 01:21:43;;;;;;;4.57;4.23;;;18.50;41.50;;;;;;5006987;28;20220;-56
2022/03/30 01:24:11;;;;;;;5.43;4.73;;;18.50;41.40;;;;;;5008771;28;20224;-57
2022/03/30 01:26:37;;;;;;;4.13;3.93;;;18.50;41.40;;;;;;5008742;28;20478;-57
2022/03/30 01:32:25;;;;;;;4.80;4.50;;;18.50;41.40;;;;;;5005411;28;20465;-57
2022/03/30 01:34:41;;;;;;;4.23;3.93;;;18.50;41.40;;;;;;5006874;28;21010;-57
2022/03/30 01:37:08;;;;;;;4.97;4.67;;;18.50;41.40;;;;;;5006093;28;20500;-57
2022/03/30 01:39:34;;;;;;;4.40;4.10;;;18.50;41.40;;;;;;5007404;28;20472;-56
2022/03/30 01:42:00;;;;;;;4.37;4.00;;;18.50;41.40;;;;;;5008276;28;20420;-56
2022/03/30 01:44:26;;;;;;;4.70;4.40;;;18.50;41.50;;;;;;5008488;28;20229;-56
2022/03/30 01:46:52;;;;;;;4.60;4.30;;;18.50;41.50;;;;;;5007752;28;20415;-57
2022/03/30 01:49:21;;;;;;;4.50;4.10;;;18.40;41.40;;;;;;5007599;28;20227;-57
2022/03/30 01:51:52;;;;;;;4.57;4.23;;;18.50;41.50;;;;;;5006497;28;20465;-58
2022/03/30 01:54:20;;;;;;;4.80;4.50;;;18.40;41.30;;;;;;5007588;28;20451;-58
2022/03/30 01:56:46;;;;;;;4.00;3.80;;;18.40;41.40;;;;;;5006687;28;20421;-56
2022/03/30 01:59:13;;;;;;;4.37;4.07;;;18.40;41.40;;;;;;5007984;28;20419;-57
2022/03/30 02:01:40;;;;;;;4.40;4.10;;;18.40;41.40;;;;;;5007233;28;20461;-58
2022/03/30 02:04:06;;;;;;;4.37;4.07;;;18.40;41.40;;;;;;5007368;28;20527;-56
2022/03/30 02:06:33;;;;;;;4.70;4.40;;;18.40;41.40;;;;;;5008408;28;20453;-58
2022/03/30 02:08:58;;;;;;;4.00;3.80;;;18.40;41.30;;;;;;5007960;28;20224;-57
2022/03/30 02:11:26;;;;;;;4.93;4.60;;;18.40;41.40;;;;;;5008412;28;20434;-56
2022/03/30 02:13:51;;;;;;;4.10;3.90;;;18.40;41.40;;;;;;5006511;28;20222;-57
2022/03/30 02:16:17;;;;;;;4.33;4.03;;;18.50;41.50;;;;;;5008389;28;20498;-58
2022/03/30 02:18:43;;;;;;;4.60;4.30;;;18.40;41.40;;;;;;5007521;28;20939;-57
2022/03/30 02:21:09;;;;;;;3.97;3.77;;;18.40;41.40;;;;;;5006806;28;20323;-56
2022/03/30 02:23:34;;;;;;;4.70;4.40;;;18.40;41.50;;;;;;5008110;28;20231;-56
2022/03/30 02:26:00;;;;;;;5.40;3.97;;;18.40;41.50;;;;;;5007378;28;20424;-56
2022/03/30 02:28:25;;;;;;;3.80;3.60;;;18.40;41.50;;;;;;5009552;28;20274;-58
2022/03/30 02:30:51;;;;;;;3.80;3.60;;;18.40;41.50;;;;;;5010565;28;20230;-58
2022/03/30 02:33:17;;;;;;;4.87;3.90;;;18.40;41.50;;;;;;5010523;28;20251;-57
2022/03/30 02:35:42;;;;;;;4.80;4.40;;;18.40;41.50;;;;;;5009611;28;20240;-57
2022/03/30 02:38:08;;;;;;;4.30;4.00;;;18.40;41.50;;;;;;5012391;28;20349;-56
2022/03/30 02:40:33;;;;;;;4.10;3.80;;;18.40;41.40;;;;;;5010504;28;20227;-58
2022/03/30 02:42:59;;;;;;;4.10;3.80;;;18.40;41.50;;;;;;5009986;28;20278;-57
2022/03/30 02:45:25;;;;;;;4.37;3.97;;;18.40;41.50;;;;;;5012388;28;20772;-57
2022/03/30 02:50:34;;;;;;;4.30;4.00;;;18.40;41.50;;;;;;5009679;28;20215;-57
2022/03/30 02:53:00;;;;;;;3.97;3.67;;;18.40;41.50;;;;;;5010589;28;20449;-58
2022/03/30 02:55:25;;;;;;;4.43;4.13;;;18.40;41.50;;;;;;5009903;28;20290;-57
2022/03/30 02:57:51;;;;;;;3.80;3.60;;;18.40;41.50;;;;;;5010268;28;20228;-57
2022/03/30 03:00:17;;;;;;;4.20;4.00;;;18.40;41.40;;;;;;5011686;28;20716;-57
2022/03/30 03:02:43;;;;;;;3.50;3.30;;;18.40;41.50;;;;;;5009728;28;20649;-57
2022/03/30 03:05:09;;;;;;;4.47;4.17;;;18.40;41.50;;;;;;5010547;28;20302;-57
2022/03/30 03:07:34;;;;;;;5.60;4.10;;;18.40;41.50;;;;;;5011348;28;20520;-57
2022/03/30 03:10:01;;;;;;;4.40;4.10;;;18.40;41.50;;;;;;5008230;28;20690;-56
2022/03/30 03:12:27;;;;;;;3.83;3.63;;;18.40;41.50;;;;;;5009662;28;20219;-56
2022/03/30 03:14:52;;;;;;;4.70;4.40;;;18.40;41.50;;;;;;5010217;28;20984;-56
2022/03/30 03:17:18;;;;;;;4.40;4.00;;;18.40;41.50;;;;;;5012034;28;20669;-58
2022/03/30 03:19:43;;;;;;;4.33;4.03;;;18.40;41.40;;;;;;5008508;28;20582;-56
2022/03/30 03:22:09;;;;;;;3.80;3.50;;;18.40;41.40;;;;;;5011254;28;20258;-57
2022/03/30 03:24:34;;;;;;;4.20;4.00;;;18.40;41.40;;;;;;5009041;28;20219;-57
2022/03/30 03:27:00;;;;;;;3.70;3.50;;;18.40;41.50;;;;;;5011435;28;20224;-57
2022/03/30 03:29:26;;;;;;;4.70;4.40;;;18.40;41.40;;;;;;5010247;28;20224;-58
2022/03/30 03:31:52;;;;;;;4.50;4.10;;;18.40;41.40;;;;;;5009560;28;20231;-57
2022/03/30 03:34:17;;;;;;;3.73;3.53;;;18.40;41.40;;;;;;5011397;28;20346;-58
2022/03/30 03:36:43;;;;;;;4.10;3.80;;;18.40;41.40;;;;;;5011099;28;20215;-56
2022/03/30 03:39:08;;;;;;;4.53;4.10;;;18.40;41.40;;;;;;5009222;28;20582;-58
2022/03/30 03:41:35;;;;;;;4.70;4.37;;;18.40;41.40;;;;;;5010354;28;20250;-57
2022/03/30 03:44:00;;;;;;;3.63;3.43;;;18.40;41.40;;;;;;5009676;28;20215;-57
2022/03/30 03:46:26;;;;;;;4.33;4.13;;;18.40;41.50;;;;;;5011020;28;20784;-56
2022/03/30 03:48:51;;;;;;;4.37;4.07;;;18.40;41.30;;;;;;4993250;28;20224;-57
2022/03/30 03:51:17;;;;;;;4.43;4.13;;;18.40;41.40;;;;;;5011151;28;20219;-58
2022/03/30 03:53:43;;;;;;;4.47;4.10;;;18.40;41.40;;;;;;5009700;28;20224;-57
2022/03/30 03:56:08;;;;;;;4.13;3.83;;;18.40;41.40;;;;;;5010122;28;20822;-59
2022/03/30 03:58:34;;;;;;;4.03;3.80;;;18.40;41.40;;;;;;5009685;28;20247;-57
2022/03/30 04:01:00;;;;;;;4.23;3.93;;;18.40;41.40;;;;;;4991492;28;20224;-57
2022/03/30 04:03:25;;;;;;;3.80;3.60;;;18.40;41.30;;;;;;5009384;28;20227;-59
2022/03/30 04:05:51;;;;;;;4.00;3.80;;;18.40;42.20;;;;;;5010574;28;20262;-58
2022/03/30 04:08:16;;;;;;;3.70;3.50;;;18.40;41.40;;;;;;5009676;28;20290;-57
2022/03/30 04:10:42;;;;;;;6.30;4.10;;;18.40;41.40;;;;;;5010462;28;20227;-57
2022/03/30 04:13:09;;;;;;;4.30;4.00;;;18.40;41.30;;;;;;5008522;28;20239;-58
2022/03/30 04:15:35;;;;;;;4.33;4.10;;;18.40;41.40;;;;;;5007699;28;20282;-57
2022/03/30 04:18:03;;;;;;;4.83;4.40;;;18.40;41.40;;;;;;5006751;28;20427;-57
2022/03/30 04:20:29;;;;;;;4.40;4.10;;;18.40;41.30;;;;;;5007609;28;20451;-56
2022/03/30 04:22:55;;;;;;;4.13;3.83;;;18.40;41.30;;;;;;5008636;28;20420;-56
2022/03/30 04:25:21;;;;;;;4.37;3.97;;;18.40;41.40;;;;;;5007784;28;20231;-57
2022/03/30 04:27:49;;;;;;;4.00;3.70;;;18.40;41.30;;;;;;5010086;28;20927;-59
2022/03/30 04:30:16;;;;;;;4.07;3.87;;;18.40;41.30;;;;;;5009463;28;20234;-56
2022/03/30 04:32:42;;;;;;;4.07;3.87;;;18.40;42.10;;;;;;5009119;28;20456;-59
2022/03/30 04:35:09;;;;;;;4.03;3.73;;;18.40;41.30;;;;;;4991283;28;21051;-56
2022/03/30 04:37:34;;;;;;;4.00;3.80;;;18.40;41.30;;;;;;5010046;28;20453;-58
2022/03/30 04:40:00;;;;;;;4.43;4.13;;;18.40;41.30;;;;;;5008024;28;20829;-56
2022/03/30 04:42:25;;;;;;;3.57;3.37;;;18.40;41.20;;;;;;5009255;28;20220;-59
2022/03/30 04:44:51;;;;;;;4.17;3.97;;;18.50;41.20;;;;;;5008050;28;20282;-58
2022/03/30 04:47:17;;;;;;;3.90;3.70;;;18.50;41.10;;;;;;5009030;28;20695;-59
2022/03/30 04:49:42;;;;;;;4.13;3.80;;;18.50;41.10;;;;;;5008399;28;20227;-58
2022/03/30 04:52:09;;;;;;;4.00;3.80;;;18.50;41.00;;;;;;5009823;28;20232;-57
2022/03/30 04:54:35;;;;;;;4.20;3.80;;;18.50;40.90;;;;;;5007523;28;20246;-60
2022/03/30 04:57:01;;;;;;;4.13;3.77;;;18.50;41.00;;;;;;5005910;28;20424;-57
2022/03/30 04:59:26;;;;;;;4.00;3.80;;;18.60;41.00;;;;;;5007547;28;20220;-56
2022/03/30 05:01:52;;;;;;;4.00;3.70;;;18.60;41.00;;;;;;5004346;28;20217;-56
2022/03/30 05:04:17;;;;;;;4.47;3.50;;;18.60;41.00;;;;;;5009908;28;20227;-57
2022/03/30 05:06:43;;;;;;;3.80;3.50;;;18.50;40.90;;;;;;5009168;28;20276;-56
2022/03/30 05:09:08;;;;;;;4.13;3.83;;;18.60;41.00;;;;;;5005984;28;20231;-57
2022/03/30 05:11:34;;;;;;;3.47;3.17;;;18.60;41.00;;;;;;5009245;28;20219;-58
2022/03/30 05:14:00;;;;;;;3.87;3.67;;;18.60;41.00;;;;;;5007496;28;20638;-57
2022/03/30 05:16:25;;;;;;;3.47;3.27;;;18.60;40.90;;;;;;5009700;28;20564;-56
2022/03/30 05:18:51;;;;;;;4.20;3.80;;;18.60;40.90;;;;;;5006625;28;20246;-58
2022/03/30 05:21:17;;;;;;;3.70;3.47;;;18.60;40.90;;;;;;5007076;28;20587;-56
2022/03/30 05:23:42;;;;;;;3.87;3.57;;;18.60;41.70;;;;;;5009223;28;20219;-56
2022/03/30 05:26:08;;;;;;;3.90;3.40;;;18.60;41.70;;;;;;5008148;28;20242;-57
2022/03/30 05:28:38;;;;;;;6.00;3.63;;;18.60;40.90;;;;;;5007171;28;20764;-59
2022/03/30 05:31:05;;;;;;;3.47;3.17;;;18.60;40.90;;;;;;5007194;28;20223;-58
2022/03/30 05:33:30;;;;;;;3.80;3.50;;;18.60;40.90;;;;;;5007149;28;20456;-58
2022/03/30 05:35:56;;;;;;;3.80;3.60;;;18.60;40.90;;;;;;5007436;28;20453;-58
2022/03/30 05:38:21;;;;;;;3.63;3.37;;;18.60;40.90;;;;;;5008425;28;20254;-58
2022/03/30 05:40:48;;;;;;;4.13;3.60;;;18.60;40.90;;;;;;5006199;28;20227;-61
2022/03/30 05:43:14;;;;;;;3.23;3.03;;;18.60;41.00;;;;;;5008270;28;20223;-58
2022/03/30 05:45:39;;;;;;;3.97;3.67;;;18.60;40.90;;;;;;4986633;28;20536;-58
2022/03/30 05:48:05;;;;;;;3.60;3.40;;;18.60;40.90;;;;;;5009024;28;20273;-56
2022/03/30 05:50:31;;;;;;;4.13;3.83;;;18.60;40.90;;;;;;5006082;28;20223;-56
2022/03/30 05:52:57;;;;;;;4.97;4.57;;;18.60;40.90;;;;;;5009195;28;20215;-56
2022/03/30 05:55:22;;;;;;;4.73;4.20;;;18.60;40.90;;;;;;5008301;28;20231;-56
2022/03/30 05:57:48;;;;;;;3.40;3.20;;;18.60;40.90;;;;;;5009496;28;20482;-57
2022/03/30 06:00:14;;;;;;;3.97;3.77;;;18.60;40.90;;;;;;5007093;28;20239;-63
2022/03/30 06:02:40;;;;;;;4.50;4.10;;;18.60;41.00;;;;;;5008509;28;20226;-57
2022/03/30 06:05:06;;;;;;;5.80;4.50;;;18.60;40.90;;;;;;5012003;28;20219;-57
2022/03/30 06:07:32;;;;;;;5.47;5.07;;;18.60;40.80;;;;;;5013724;28;20631;-55
2022/03/30 06:09:59;;;;;;;4.40;3.93;;;18.60;40.80;;;;;;5014737;28;20466;-56
2022/03/30 06:12:24;;;;;;;5.60;4.50;;;18.60;40.80;;;;;;4993432;28;20452;-56
2022/03/30 06:14:51;;;;;;;4.70;3.93;;;18.60;40.80;;;;;;5013564;28;20439;-56
2022/03/30 06:17:18;;;;;;;4.10;3.80;;;18.60;40.80;;;;;;5012980;28;20592;-56
2022/03/30 06:19:47;;;;;;;4.27;3.87;;;18.60;40.80;;;;;;5007869;28;20412;-55
2022/03/30 06:22:13;;;;;;;4.90;4.50;;;18.60;40.80;;;;;;5013762;28;20424;-57
2022/03/30 06:24:40;;;;;;;3.90;3.60;;;18.60;40.70;;;;;;5014788;28;20985;-58
2022/03/30 06:27:07;;;;;;;4.23;3.90;;;18.60;40.70;;;;;;5013311;28;20359;-56
2022/03/30 06:29:34;;;;;;;4.47;4.07;;;18.60;40.80;;;;;;5012725;28;20456;-56
2022/03/30 06:32:00;;;;;;;4.13;3.70;;;18.60;40.70;;;;;;5015407;28;20442;-56
2022/03/30 06:34:26;;;;;;;4.17;3.87;;;18.60;40.70;;;;;;5014721;28;20496;-57
2022/03/30 06:36:51;;;;;;;3.43;3.13;;;18.60;40.80;;;;;;5014624;28;20527;-57
2022/03/30 06:39:17;;;;;;;4.03;3.70;;;18.60;40.70;;;;;;5016056;28;20261;-56
2022/03/30 06:41:44;;;;;;;3.60;3.40;;;18.60;40.70;;;;;;5011987;28;20239;-59
2022/03/30 06:44:10;;;;;;;4.50;4.03;;;18.60;40.70;;;;;;5012349;28;20220;-56
2022/03/30 06:46:38;;;;;;;4.03;3.73;;;18.60;40.70;;;;;;5012753;28;20426;-56
2022/03/30 06:49:05;;;;;;;4.73;4.17;;;18.60;41.00;;;;;;5013978;28;20669;-57
2022/03/30 06:51:31;;;;;;;3.93;3.60;;;18.60;40.70;;;;;;5014199;28;20441;-56
2022/03/30 06:53:56;;;;;;;4.57;4.27;;;18.60;40.70;;;;;;5015038;28;20870;-56
2022/03/30 06:56:22;;;;;;;5.20;3.00;;;18.60;40.70;;;;;;5012799;28;20278;-56
2022/03/30 06:58:47;;;;;;;3.87;3.60;;;18.60;40.70;;;;;;5011610;28;20213;-56
2022/03/30 07:01:16;;;;;;;4.30;3.90;;;18.60;40.60;;;;;;5015167;28;20668;-56
2022/03/30 07:03:41;;;;;;;3.60;3.30;;;18.60;40.70;;;;;;5010636;28;20224;-56
2022/03/30 07:06:07;;;;;;;4.13;3.83;;;18.60;40.70;;;;;;5014522;28;20443;-56
2022/03/30 07:11:17;;;;;;;4.30;4.00;;;18.60;40.70;;;;;;5012137;28;20915;-55
2022/03/30 07:13:43;;;;;;;3.73;3.53;;;18.60;40.70;;;;;;5011773;28;20419;-55
2022/03/30 07:16:09;;;;;;;4.07;3.67;;;18.60;40.70;;;;;;5010830;28;20244;-56
2022/03/30 07:18:34;;;;;;;3.47;3.17;;;18.60;40.60;;;;;;5010131;28;20431;-57
2022/03/30 07:21:00;;;;;;;3.53;3.33;;;18.60;40.60;;;;;;5010182;28;20712;-55
2022/03/30 07:23:26;;;;;;;3.93;3.60;;;18.60;40.70;;;;;;5010510;28;20223;-57
2022/03/30 07:25:52;;;;;;;3.43;3.23;;;18.60;40.60;;;;;;5010569;28;20235;-56
2022/03/30 07:28:18;;;;;;;3.87;3.57;;;18.60;40.70;;;;;;5010560;28;20221;-55
2022/03/30 07:30:45;;;;;;;6.93;3.27;;;18.60;40.70;;;;;;5007194;28;20586;-55
2022/03/30 07:33:11;;;;;;;3.30;3.10;;;18.60;40.60;;;;;;5010979;28;20246;-56
2022/03/30 07:35:39;;;;;;;4.30;4.00;;;18.60;40.60;;;;;;4991701;28;20872;-56
2022/03/30 07:38:05;;;;;;;3.70;3.50;;;18.60;40.60;;;;;;5011256;28;20449;-58
2022/03/30 07:40:32;;;;;;;3.67;3.47;;;18.60;40.60;;;;;;5008819;28;20458;-57
2022/03/30 07:42:57;;;;;;;4.30;3.90;;;18.60;40.60;;;;;;5010410;28;20976;-56
2022/03/30 07:45:24;;;;;;;4.30;3.90;;;18.60;40.60;;;;;;5010404;28;20603;-55
2022/03/30 07:47:51;;;;;;;3.60;3.30;;;18.60;40.60;;;;;;5010306;28;20242;-57
2022/03/30 07:50:17;;;;;;;3.47;3.27;;;18.60;40.70;;;;;;5008591;28;20434;-56
2022/03/30 07:52:43;;;;;;;3.70;3.40;;;18.60;40.60;;;;;;5009662;28;20453;-55
2022/03/30 07:55:11;;;;;;;3.23;3.03;;;18.60;40.60;;;;;;5009931;28;20505;-55
2022/03/30 07:57:37;;;;;;;8.00;3.50;;;18.60;40.60;;;;;;5009868;28;20434;-56
2022/03/30 08:00:06;;;;;;;4.03;3.73;;;18.60;40.60;;;;;;5009443;28;20423;-57
2022/03/30 08:02:32;;;;;;;3.60;3.40;;;18.60;40.60;;;;;;5011057;28;20454;-55
2022/03/30 08:04:58;;;;;;;3.47;3.27;;;18.60;40.60;;;;;;5009611;28;20469;-57
2022/03/30 08:07:26;;;;;;;3.90;3.60;;;18.60;40.60;;;;;;5010222;28;20266;-58
2022/03/30 08:09:55;;;;;;;4.17;3.83;;;18.60;40.50;;;;;;5009232;28;20322;-58
2022/03/30 08:12:21;;;;;;;3.60;3.30;;;18.60;40.60;;;;;;5008236;28;20452;-59
2022/03/30 08:14:47;;;;;;;4.10;3.80;;;18.60;40.60;;;;;;5010264;28;20493;-59
2022/03/30 08:17:13;;;;;;;3.60;3.30;;;18.60;40.50;;;;;;5008990;28;20226;-58
2022/03/30 08:19:39;;;;;;;3.97;3.40;;;18.60;40.50;;;;;;5009130;28;20424;-57
2022/03/30 08:24:49;;;;;;;3.37;3.17;;;18.60;40.50;;;;;;5008386;28;20247;-56
2022/03/30 08:27:24;;;;;;;3.57;3.27;;;18.60;40.50;;;;;;5010113;28;20469;-56
2022/03/30 08:29:51;;;;;;;3.30;3.10;;;18.60;40.50;;;;;;5009449;28;20216;-57
2022/03/30 08:32:18;;;;;;;3.40;3.10;;;18.60;40.50;;;;;;4990389;28;20481;-58
2022/03/30 08:34:44;;;;;;;3.60;3.40;;;18.60;40.50;;;;;;5006042;28;20553;-57
2022/03/30 08:37:11;;;;;;;3.47;3.27;;;18.60;40.60;;;;;;5006885;28;21050;-57
2022/03/30 08:39:36;;;;;;;3.23;2.93;;;18.60;40.50;;;;;;5007999;28;20247;-56
2022/03/30 08:42:07;;;;;;;4.30;3.87;;;18.60;40.50;;;;;;5006676;28;20485;-56
2022/03/30 08:44:34;;;;;;;3.47;3.27;;;18.60;40.50;;;;;;5009076;28;20235;-56
2022/03/30 08:47:00;;;;;;;3.77;3.20;;;18.60;40.50;;;;;;4989435;28;21122;-56
2022/03/30 08:49:27;;;;;;;3.90;3.70;;;18.60;40.50;;;;;;5009484;28;20420;-58
2022/03/30 08:51:55;;;;;;;3.07;2.87;;;18.60;40.40;;;;;;5007711;28;20416;-56
2022/03/30 08:54:21;;;;;;;4.50;4.10;;;18.60;40.50;;;;;;5007330;28;20420;-56
2022/03/30 08:56:47;;;;;;;2.90;2.80;;;18.60;40.50;;;;;;5010315;28;20452;-56
2022/03/30 08:59:20;;;;;;;3.27;3.07;;;18.60;40.50;;;;;;5007462;28;20442;-56
2022/03/30 09:01:46;;;;;;;3.93;3.27;;;18.60;40.50;;;;;;5007936;28;20420;-55
2022/03/30 09:04:13;;;;;;;2.83;2.63;;;18.60;40.50;;;;;;5008652;28;20460;-56
2022/03/30 09:06:45;;;;;;;3.70;3.07;;;18.60;40.50;;;;;;5005880;28;20935;-57
2022/03/30 09:09:12;;;;;;;3.30;3.10;;;18.60;40.50;;;;;;5009485;28;20911;-56
2022/03/30 09:11:41;;;;;;;3.73;3.43;;;18.60;40.50;;;;;;4991087;28;20785;-55
2022/03/30 09:14:09;;;;;;;3.50;3.20;;;18.60;40.50;;;;;;5007215;28;20424;-56
2022/03/30 09:16:39;;;;;;;3.10;2.80;;;18.60;40.40;;;;;;5006904;28;20431;-57
2022/03/30 09:19:08;;;;;;;3.43;3.13;;;18.60;40.50;;;;;;5007497;28;20438;-58
2022/03/30 09:21:51;;;;;;;3.57;3.27;;;18.60;40.40;;;;;;5007469;28;20432;-56
2022/03/30 09:24:20;;;;;;;3.10;2.90;;;18.60;40.50;;;;;;5006581;28;20514;-57
2022/03/30 09:26:47;;;;;;;2.70;2.50;;;18.60;40.50;;;;;;5008109;28;20424;-57
2022/03/30 09:29:13;;;;;;;3.80;3.50;;;18.60;41.20;;;;;;5009195;28;20448;-56
2022/03/30 09:31:41;;;;;;;3.00;2.80;;;18.60;40.50;;;;;;5009312;28;20515;-55
2022/03/30 09:34:09;;;;;;;3.17;3.00;;;18.60;40.50;;;;;;5007239;28;20227;-56
2022/03/30 09:36:37;;;;;;;3.13;2.93;;;18.60;40.50;;;;;;5004992;28;20437;-57
2022/03/30 09:39:04;;;;;;;3.40;3.20;;;18.60;40.50;;;;;;5007528;28;20519;-56
2022/03/30 09:41:47;;;;;;;3.43;3.13;;;18.60;40.50;;;;;;5008623;28;20787;-56
2022/03/30 09:44:13;;;;;;;3.43;3.23;;;18.60;40.50;;;;;;5007806;28;20459;-56
2022/03/30 09:46:57;;;;;;;3.83;3.57;;;18.50;40.40;;;;;;5006167;28;20420;-56
2022/03/30 09:49:45;;;;;;;3.77;3.30;;;18.60;40.50;;;;;;5007482;28;20234;-58
2022/03/30 09:52:11;;;;;;;4.13;3.70;;;18.60;40.50;;;;;;5007057;28;22119;-57
2022/03/30 09:54:40;;;;;;;3.27;3.03;;;18.50;40.40;;;;;;5005503;28;20518;-56
2022/03/30 09:57:15;;;;;;;3.60;3.30;;;18.50;40.40;;;;;;5005182;28;20438;-59
2022/03/30 10:00:00;;;;;;;3.13;2.97;;;18.50;40.40;;;;;;5006761;28;20924;-56
2022/03/30 10:02:27;;;;;;;2.80;2.60;;;18.60;40.50;;;;;;5004362;28;20415;-57
2022/03/30 10:04:55;;;;;;;3.77;3.53;;;18.50;40.40;;;;;;4996903;28;20928;-57
2022/03/30 10:07:21;;;;;;;3.27;3.07;;;18.50;40.40;;;;;;5007958;28;20497;-56
2022/03/30 10:09:48;;;;;;;3.87;3.67;;;18.60;40.50;;;;;;5006487;28;20469;-58
2022/03/30 10:12:17;;;;;;;4.93;3.47;;;18.50;40.40;;;;;;5008260;28;20459;-57
2022/03/30 10:14:44;;;;;;;3.30;3.10;;;18.50;40.30;;;;;;5004387;28;20457;-56
2022/03/30 10:17:09;;;;;;;2.97;2.77;;;18.60;40.40;;;;;;5007495;28;20595;-56
2022/03/30 10:19:35;;;;;;;3.10;2.90;;;18.60;40.50;;;;;;5008155;28;20511;-56
2022/03/30 10:22:30;;;;;;;3.13;2.93;;;18.50;41.20;;;;;;5005216;28;20218;-56
2022/03/30 10:25:23;;;;;;;4.20;3.80;;;18.50;40.50;;;;;;4960806;28;20231;-56
2022/03/30 10:28:14;;;;;;;3.77;3.57;;;18.50;40.40;;;;;;5007267;28;20946;-55
2022/03/30 10:30:43;;;;;;;3.93;3.73;;;18.50;40.40;;;;;;5007941;28;20460;-57
2022/03/30 10:33:10;;;;;;;3.67;3.47;;;18.50;40.40;;;;;;5006483;28;20517;-57
2022/03/30 10:35:47;;;;;;;3.97;3.70;;;18.50;40.40;;;;;;5008098;28;20440;-56
2022/03/30 10:38:14;;;;;;;4.00;3.70;;;18.50;40.50;;;;;;5007241;28;20439;-56
2022/03/30 10:40:41;;;;;;;4.00;3.70;;;18.50;40.40;;;;;;5007469;28;20427;-56
2022/03/30 10:43:23;;;;;;;3.60;3.40;;;18.50;40.50;;;;;;5008613;28;21132;-56
2022/03/30 10:45:56;;;;;;;4.10;3.70;;;18.50;40.50;;;;;;5006345;28;20916;-56
2022/03/30 10:48:34;;;;;;;3.67;3.37;;;18.50;40.50;;;;;;5007668;28;20427;-56
2022/03/30 10:51:13;;;;;;;3.70;3.40;;;18.50;40.50;;;;;;5010143;28;20457;-56
2022/03/30 10:53:48;;;;;;;4.57;4.27;;;18.50;40.50;;;;;;5010360;28;20965;-57
2022/03/30 10:56:18;;;;;;;4.03;3.83;;;18.50;40.50;;;;;;5011546;28;20519;-56
2022/03/30 10:58:49;;;;;;;3.60;3.40;;;18.50;40.50;;;;;;5006462;28;20457;-55
2022/03/30 11:01:24;;;;;;;4.20;3.90;;;18.50;40.50;;;;;;5009707;28;20432;-56
2022/03/30 11:04:13;;;;;;;4.13;3.83;;;18.50;40.60;;;;;;5009901;28;20463;-55
2022/03/30 11:06:44;;;;;;;3.73;3.50;;;18.50;40.50;;;;;;5010012;28;20481;-55
2022/03/30 11:09:28;;;;;;;3.80;3.60;;;18.50;40.50;;;;;;5011373;28;20445;-56
2022/03/30 11:12:12;;;;;;;4.00;3.80;;;18.50;40.50;;;;;;4969341;28;20797;-56
2022/03/30 11:14:43;;;;;;;4.23;3.90;;;18.50;40.50;;;;;;4970871;28;20449;-56
2022/03/30 11:17:31;;;;;;;4.40;4.10;;;18.50;40.60;;;;;;4970617;28;20521;-55
2022/03/30 11:19:57;;;;;;;4.13;3.93;;;18.50;40.60;;;;;;4971097;28;20433;-56
2022/03/30 11:22:28;;;;;;;4.27;3.97;;;18.50;40.60;;;;;;4972864;28;20425;-56
2022/03/30 11:25:19;;;;;;;4.57;4.27;;;18.50;40.60;;;;;;4971172;28;20255;-59
2022/03/30 11:27:57;;;;;;;3.83;3.53;;;18.50;40.60;;;;;;4966395;28;20406;-59
2022/03/30 11:30:28;;;;;;;3.70;3.50;;;18.50;40.60;;;;;;4967385;28;20428;-57
2022/03/30 11:33:01;;;;;;;5.13;3.93;;;18.50;40.60;;;;;;4971938;28;20455;-59
2022/03/30 11:35:30;;;;;;;4.40;3.83;;;18.50;40.60;;;;;;4970410;28;20888;-58
2022/03/30 11:38:01;;;;;;;5.00;4.70;;;18.50;40.60;;;;;;4970519;28;20999;-58
2022/03/30 11:40:27;;;;;;;4.07;3.87;;;18.50;40.60;;;;;;4965299;28;21015;-58
2022/03/30 11:42:55;;;;;;;3.87;3.67;;;18.50;41.40;;;;;;4972442;28;20449;-58
2022/03/30 11:45:25;;;;;;;4.03;3.83;;;18.50;40.60;;;;;;4970141;28;20601;-59
2022/03/30 11:47:51;;;;;;;4.33;4.03;;;18.50;40.60;;;;;;4970790;28;20429;-58
2022/03/30 11:50:24;;;;;;;4.40;4.00;;;18.50;40.70;;;;;;4971975;28;20915;-57
2022/03/30 11:52:54;;;;;;;4.43;4.13;;;18.50;40.60;;;;;;4971007;28;20537;-58
2022/03/30 11:55:21;;;;;;;4.60;4.20;;;18.50;40.60;;;;;;4971148;28;20446;-58
2022/03/30 11:57:46;;;;;;;4.30;4.07;;;18.50;40.60;;;;;;4970825;28;20421;-58
2022/03/30 12:00:12;;;;;;;4.50;4.20;;;18.50;40.60;;;;;;4969158;28;20497;-58
2022/03/30 12:02:42;;;;;;;4.37;4.07;;;18.50;40.60;;;;;;4968847;28;20221;-58
2022/03/30 12:05:09;;;;;;;4.30;4.10;;;18.50;40.60;;;;;;4972053;28;20437;-58
2022/03/30 12:07:37;;;;;;;4.80;4.50;;;18.50;40.70;;;;;;4966281;28;20455;-58
2022/03/30 12:10:11;;;;;;;4.60;4.30;;;18.50;40.70;;;;;;4980627;28;20527;-58
2022/03/30 12:12:39;;;;;;;4.83;4.53;;;18.50;40.70;;;;;;5009406;28;20424;-58
2022/03/30 12:15:08;;;;;;;5.10;4.70;;;18.50;41.50;;;;;;5009430;28;21062;-58
2022/03/30 12:17:35;;;;;;;4.60;4.23;;;18.50;40.70;;;;;;5008657;28;20464;-57
2022/03/30 12:20:06;;;;;;;5.40;5.00;;;18.50;40.60;;;;;;5008014;28;20424;-58
2022/03/30 12:22:33;;;;;;;4.80;4.30;;;18.50;40.60;;;;;;5009248;28;20902;-58
2022/03/30 12:24:58;;;;;;;5.60;5.20;;;18.50;40.70;;;;;;5009661;28;20470;-58
2022/03/30 12:27:24;;;;;;;5.23;4.73;;;18.50;40.70;;;;;;5007624;28;20829;-58
2022/03/30 12:29:54;;;;;;;4.63;4.30;;;18.50;40.70;;;;;;5007587;28;20224;-59
2022/03/30 12:32:25;;;;;;;5.60;4.70;;;18.50;40.70;;;;;;5008630;28;20421;-58
2022/03/30 12:35:16;;;;;;;5.70;5.30;;;18.50;40.70;;;;;;5009830;28;20424;-59
2022/03/30 12:37:46;;;;;;;5.50;5.20;;;18.50;40.70;;;;;;5006621;28;20432;-58
2022/03/30 12:40:13;;;;;;;6.20;4.70;;;18.50;41.60;;;;;;5009178;28;20761;-58
2022/03/30 12:42:39;;;;;;;6.03;5.30;;;18.40;40.60;;;;;;5010544;28;20527;-58
2022/03/30 12:45:11;;;;;;;5.83;5.37;;;18.50;40.70;;;;;;5009091;28;20436;-58
2022/03/30 12:47:39;;;;;;;5.73;5.43;;;18.50;40.70;;;;;;5006562;28;20432;-60
2022/03/30 12:50:14;;;;;;;5.13;4.83;;;18.40;40.70;;;;;;5009249;28;20419;-58
2022/03/30 12:52:48;;;;;;;6.07;5.57;;;18.50;40.70;;;;;;5008444;28;20464;-58
2022/03/30 12:55:20;;;;;;;6.80;6.30;;;18.50;40.80;;;;;;5008834;28;20459;-59
2022/03/30 12:57:55;;;;;;;5.50;5.00;;;18.40;41.50;;;;;;5008632;28;20421;-60
2022/03/30 13:00:24;;;;;;;6.00;5.60;;;18.40;40.70;;;;;;5005579;28;20423;-59
2022/03/30 13:03:02;;;;;;;6.03;5.50;;;18.50;40.80;;;;;;5008749;28;20513;-59